EGHG weather

Yeovil/Westland Aerodrome
Yeovil, England, United Kingdom

Public forecast

Using degrees Celsius for public forecast. Weather courtesy of forecast.io.

METAR (pilot weather report)

Closest report is RNAS Yeovilton, 4.2 nm (7.8 km) N. Retrieved 2019/06/27 00:20 UTC (16 minutes ago):

EGDY 270020Z 04012KT 9999 BKN013 SCT020 14/12 Q1027 NOSIG RMK GRN GRN

TAF (pilot weather forecast)

Forecast is more than 12 hours old.

Closest forecast is RNAS Yeovilton, 4.2 nm (7.8 km) N. Retrieved 2019/05/01 18:06 UTC (2 months ago):

TAF TAF EGDY 010100Z 3018/0103 CNL